sensor_id;sensor_type;location;lat;lon;timestamp;temperature;humidity
7648;DHT22;3866;48.020;11.720;2023-05-07T00:00:11;10.30;99.90
7648;DHT22;3866;48.020;11.720;2023-05-07T00:02:40;10.40;99.90
7648;DHT22;3866;48.020;11.720;2023-05-07T00:05:08;10.30;99.90
7648;DHT22;3866;48.020;11.720;2023-05-07T00:07:36;10.30;99.90
7648;DHT22;3866;48.020;11.720;2023-05-07T00:10:04;10.30;99.90
7648;DHT22;3866;48.020;11.720;2023-05-07T00:12:32;10.30;99.90
7648;DHT22;3866;48.020;11.720;2023-05-07T00:14:59;10.30;99.90
7648;DHT22;3866;48.020;11.720;2023-05-07T00:17:26;10.40;99.90
7648;DHT22;3866;48.020;11.720;2023-05-07T00:19:52;10.40;99.90
7648;DHT22;3866;48.020;11.720;2023-05-07T00:22:19;10.50;99.90
7648;DHT22;3866;48.020;11.720;2023-05-07T00:24:48;10.60;99.90
7648;DHT22;3866;48.020;11.720;2023-05-07T00:27:15;10.60;99.90
7648;DHT22;3866;48.020;11.720;2023-05-07T00:29:42;10.60;99.90
7648;DHT22;3866;48.020;11.720;2023-05-07T00:32:09;10.70;99.90
7648;DHT22;3866;48.020;11.720;2023-05-07T00:34:35;10.70;99.90
7648;DHT22;3866;48.020;11.720;2023-05-07T00:37:02;10.70;99.90
7648;DHT22;3866;48.020;11.720;2023-05-07T00:39:29;10.70;99.90
7648;DHT22;3866;48.020;11.720;2023-05-07T00:41:57;10.80;99.90
7648;DHT22;3866;48.020;11.720;2023-05-07T00:44:24;10.80;99.90
7648;DHT22;3866;48.020;11.720;2023-05-07T00:46:52;10.80;99.90
7648;DHT22;3866;48.020;11.720;2023-05-07T00:49:19;10.70;99.90
7648;DHT22;3866;48.020;11.720;2023-05-07T00:51:47;10.60;99.90
7648;DHT22;3866;48.020;11.720;2023-05-07T00:54:14;10.50;99.90
7648;DHT22;3866;48.020;11.720;2023-05-07T00:56:41;10.50;99.90
7648;DHT22;3866;48.020;11.720;2023-05-07T00:59:09;10.50;99.90
7648;DHT22;3866;48.020;11.720;2023-05-07T01:01:36;10.50;99.90
7648;DHT22;3866;48.020;11.720;2023-05-07T01:04:03;10.80;99.90
7648;DHT22;3866;48.020;11.720;2023-05-07T01:06:32;10.80;99.90
7648;DHT22;3866;48.020;11.720;2023-05-07T01:08:59;10.70;99.90
7648;DHT22;3866;48.020;11.720;2023-05-07T01:11:27;10.70;99.90
7648;DHT22;3866;48.020;11.720;2023-05-07T01:13:54;10.70;99.90
7648;DHT22;3866;48.020;11.720;2023-05-07T01:16:23;10.70;99.90
7648;DHT22;3866;48.020;11.720;2023-05-07T01:18:50;10.70;99.90
7648;DHT22;3866;48.020;11.720;2023-05-07T01:21:18;10.70;99.90
7648;DHT22;3866;48.020;11.720;2023-05-07T01:23:48;10.60;99.90
7648;DHT22;3866;48.020;11.720;2023-05-07T01:26:15;10.60;99.90
7648;DHT22;3866;48.020;11.720;2023-05-07T01:28:45;10.70;99.90
7648;DHT22;3866;48.020;11.720;2023-05-07T01:31:12;10.60;99.90
7648;DHT22;3866;48.020;11.720;2023-05-07T01:33:41;10.60;99.90
7648;DHT22;3866;48.020;11.720;2023-05-07T01:36:09;10.60;99.90
7648;DHT22;3866;48.020;11.720;2023-05-07T01:38:37;10.50;99.90
7648;DHT22;3866;48.020;11.720;2023-05-07T01:41:07;10.50;99.90
7648;DHT22;3866;48.020;11.720;2023-05-07T01:43:34;10.40;99.90
7648;DHT22;3866;48.020;11.720;2023-05-07T01:46:01;10.30;99.90
7648;DHT22;3866;48.020;11.720;2023-05-07T01:48:29;10.20;99.90
7648;DHT22;3866;48.020;11.720;2023-05-07T01:50:56;10.10;99.90
7648;DHT22;3866;48.020;11.720;2023-05-07T01:53:22;10.00;99.90
7648;DHT22;3866;48.020;11.720;2023-05-07T01:55:49;10.00;99.90
7648;DHT22;3866;48.020;11.720;2023-05-07T01:58:18;9.90;99.90
7648;DHT22;3866;48.020;11.720;2023-05-07T02:00:44;9.80;99.90
7648;DHT22;3866;48.020;11.720;2023-05-07T02:03:11;9.80;99.90
7648;DHT22;3866;48.020;11.720;2023-05-07T02:05:38;9.80;99.90
7648;DHT22;3866;48.020;11.720;2023-05-07T02:08:05;9.80;99.90
7648;DHT22;3866;48.020;11.720;2023-05-07T02:10:32;9.90;99.90
7648;DHT22;3866;48.020;11.720;2023-05-07T02:12:59;10.00;99.90
7648;DHT22;3866;48.020;11.720;2023-05-07T02:15:28;10.00;99.90
7648;DHT22;3866;48.020;11.720;2023-05-07T02:17:59;10.00;99.90
7648;DHT22;3866;48.020;11.720;2023-05-07T02:20:26;10.00;99.90
7648;DHT22;3866;48.020;11.720;2023-05-07T02:22:53;10.00;99.90
7648;DHT22;3866;48.020;11.720;2023-05-07T02:25:20;10.10;99.90
7648;DHT22;3866;48.020;11.720;2023-05-07T02:27:47;10.10;99.90
7648;DHT22;3866;48.020;11.720;2023-05-07T02:30:14;10.10;99.90
7648;DHT22;3866;48.020;11.720;2023-05-07T02:32:42;10.20;99.90
7648;DHT22;3866;48.020;11.720;2023-05-07T02:35:10;10.10;99.90
7648;DHT22;3866;48.020;11.720;2023-05-07T02:37:37;10.10;99.90
7648;DHT22;3866;48.020;11.720;2023-05-07T02:40:05;10.10;99.90
7648;DHT22;3866;48.020;11.720;2023-05-07T02:42:32;10.10;99.90
7648;DHT22;3866;48.020;11.720;2023-05-07T02:44:58;10.20;99.90
7648;DHT22;3866;48.020;11.720;2023-05-07T02:47:25;10.20;99.90
7648;DHT22;3866;48.020;11.720;2023-05-07T02:49:55;10.30;99.90
7648;DHT22;3866;48.020;11.720;2023-05-07T02:52:22;10.30;99.90
7648;DHT22;3866;48.020;11.720;2023-05-07T02:54:49;10.30;99.90
7648;DHT22;3866;48.020;11.720;2023-05-07T02:57:16;10.30;99.90
7648;DHT22;3866;48.020;11.720;2023-05-07T02:59:43;10.40;99.90
7648;DHT22;3866;48.020;11.720;2023-05-07T03:02:10;10.40;99.90
7648;DHT22;3866;48.020;11.720;2023-05-07T03:04:37;10.40;99.90
7648;DHT22;3866;48.020;11.720;2023-05-07T03:07:06;10.30;99.90
7648;DHT22;3866;48.020;11.720;2023-05-07T03:09:32;10.20;99.90
7648;DHT22;3866;48.020;11.720;2023-05-07T03:11:59;10.20;99.90
7648;DHT22;3866;48.020;11.720;2023-05-07T03:14:27;10.00;99.90
7648;DHT22;3866;48.020;11.720;2023-05-07T03:16:54;9.90;99.90
7648;DHT22;3866;48.020;11.720;2023-05-07T03:19:20;9.90;99.90
7648;DHT22;3866;48.020;11.720;2023-05-07T03:21:47;10.00;99.90
7648;DHT22;3866;48.020;11.720;2023-05-07T03:24:16;9.90;99.90
7648;DHT22;3866;48.020;11.720;2023-05-07T03:26:42;9.90;99.90
7648;DHT22;3866;48.020;11.720;2023-05-07T03:29:09;9.90;99.90
7648;DHT22;3866;48.020;11.720;2023-05-07T03:31:36;9.90;99.90
7648;DHT22;3866;48.020;11.720;2023-05-07T03:34:03;9.90;99.90
7648;DHT22;3866;48.020;11.720;2023-05-07T03:36:30;9.90;99.90
7648;DHT22;3866;48.020;11.720;2023-05-07T03:38:57;9.80;99.90
7648;DHT22;3866;48.020;11.720;2023-05-07T03:41:25;9.70;99.90
7648;DHT22;3866;48.020;11.720;2023-05-07T03:43:52;9.60;99.90
7648;DHT22;3866;48.020;11.720;2023-05-07T03:46:19;9.70;99.90
7648;DHT22;3866;48.020;11.720;2023-05-07T03:48:46;9.70;99.90
7648;DHT22;3866;48.020;11.720;2023-05-07T03:51:13;9.70;99.90
7648;DHT22;3866;48.020;11.720;2023-05-07T03:53:39;9.70;99.90
7648;DHT22;3866;48.020;11.720;2023-05-07T03:56:07;9.70;99.90
7648;DHT22;3866;48.020;11.720;2023-05-07T03:58:35;9.70;99.90
7648;DHT22;3866;48.020;11.720;2023-05-07T04:01:02;9.60;99.90
7648;DHT22;3866;48.020;11.720;2023-05-07T04:03:29;9.70;99.90
7648;DHT22;3866;48.020;11.720;2023-05-07T04:05:56;9.70;99.90
7648;DHT22;3866;48.020;11.720;2023-05-07T04:08:22;9.70;99.90
7648;DHT22;3866;48.020;11.720;2023-05-07T04:10:54;9.70;99.90
7648;DHT22;3866;48.020;11.720;2023-05-07T04:13:21;9.70;99.90
7648;DHT22;3866;48.020;11.720;2023-05-07T04:15:49;9.80;99.90
7648;DHT22;3866;48.020;11.720;2023-05-07T04:18:16;9.80;99.90
7648;DHT22;3866;48.020;11.720;2023-05-07T04:20:43;9.70;99.90
7648;DHT22;3866;48.020;11.720;2023-05-07T04:23:10;9.60;99.90
7648;DHT22;3866;48.020;11.720;2023-05-07T04:25:37;9.70;99.90
7648;DHT22;3866;48.020;11.720;2023-05-07T04:28:04;9.80;99.90
7648;DHT22;3866;48.020;11.720;2023-05-07T04:30:31;9.90;99.90
7648;DHT22;3866;48.020;11.720;2023-05-07T04:32:59;9.90;99.90
7648;DHT22;3866;48.020;11.720;2023-05-07T04:35:26;9.80;99.90
7648;DHT22;3866;48.020;11.720;2023-05-07T04:37:53;9.70;99.90
7648;DHT22;3866;48.020;11.720;2023-05-07T04:40:20;9.70;99.90
7648;DHT22;3866;48.020;11.720;2023-05-07T04:42:47;9.60;99.90
7648;DHT22;3866;48.020;11.720;2023-05-07T04:45:14;9.80;99.90
7648;DHT22;3866;48.020;11.720;2023-05-07T04:47:41;9.90;99.90
7648;DHT22;3866;48.020;11.720;2023-05-07T04:50:10;9.90;99.90
7648;DHT22;3866;48.020;11.720;2023-05-07T04:52:37;10.00;99.90
7648;DHT22;3866;48.020;11.720;2023-05-07T04:55:04;9.90;99.90
7648;DHT22;3866;48.020;11.720;2023-05-07T04:57:31;9.90;99.90
7648;DHT22;3866;48.020;11.720;2023-05-07T04:59:58;10.00;99.90
7648;DHT22;3866;48.020;11.720;2023-05-07T05:02:25;10.10;99.90
7648;DHT22;3866;48.020;11.720;2023-05-07T05:04:52;10.20;99.90
7648;DHT22;3866;48.020;11.720;2023-05-07T05:07:20;10.20;99.90
7648;DHT22;3866;48.020;11.720;2023-05-07T05:09:47;10.20;99.90
7648;DHT22;3866;48.020;11.720;2023-05-07T05:12:13;10.20;99.90
7648;DHT22;3866;48.020;11.720;2023-05-07T05:14:41;10.20;99.90
7648;DHT22;3866;48.020;11.720;2023-05-07T05:17:08;10.30;99.90
7648;DHT22;3866;48.020;11.720;2023-05-07T05:19:35;10.50;99.90
7648;DHT22;3866;48.020;11.720;2023-05-07T05:22:02;10.70;99.90
7648;DHT22;3866;48.020;11.720;2023-05-07T05:24:30;10.90;99.90
7648;DHT22;3866;48.020;11.720;2023-05-07T05:26:57;11.10;99.90
7648;DHT22;3866;48.020;11.720;2023-05-07T05:29:25;11.30;99.90
7648;DHT22;3866;48.020;11.720;2023-05-07T05:31:52;11.50;99.90
7648;DHT22;3866;48.020;11.720;2023-05-07T05:34:19;11.70;99.90
7648;DHT22;3866;48.020;11.720;2023-05-07T05:36:47;12.20;99.90
7648;DHT22;3866;48.020;11.720;2023-05-07T05:39:14;12.60;99.90
7648;DHT22;3866;48.020;11.720;2023-05-07T05:41:42;12.90;99.90
7648;DHT22;3866;48.020;11.720;2023-05-07T05:44:09;13.20;99.90
7648;DHT22;3866;48.020;11.720;2023-05-07T05:46:36;13.60;99.90
7648;DHT22;3866;48.020;11.720;2023-05-07T05:49:03;14.20;99.90
7648;DHT22;3866;48.020;11.720;2023-05-07T05:51:29;14.70;99.90
7648;DHT22;3866;48.020;11.720;2023-05-07T05:53:56;14.80;99.90
7648;DHT22;3866;48.020;11.720;2023-05-07T05:56:23;14.60;99.90
7648;DHT22;3866;48.020;11.720;2023-05-07T05:58:51;14.50;99.90
7648;DHT22;3866;48.020;11.720;2023-05-07T06:01:18;14.40;99.90
7648;DHT22;3866;48.020;11.720;2023-05-07T06:03:45;13.80;99.90
7648;DHT22;3866;48.020;11.720;2023-05-07T06:06:12;13.90;99.90
7648;DHT22;3866;48.020;11.720;2023-05-07T06:08:40;14.50;99.90
7648;DHT22;3866;48.020;11.720;2023-05-07T06:11:07;14.40;99.90
7648;DHT22;3866;48.020;11.720;2023-05-07T06:13:34;14.80;99.90
7648;DHT22;3866;48.020;11.720;2023-05-07T06:16:02;15.00;99.90
7648;DHT22;3866;48.020;11.720;2023-05-07T06:18:29;14.90;99.90
7648;DHT22;3866;48.020;11.720;2023-05-07T06:20:56;16.10;99.90
7648;DHT22;3866;48.020;11.720;2023-05-07T06:23:23;16.70;99.90
7648;DHT22;3866;48.020;11.720;2023-05-07T06:25:50;16.90;99.90
7648;DHT22;3866;48.020;11.720;2023-05-07T06:28:17;16.70;99.90
7648;DHT22;3866;48.020;11.720;2023-05-07T06:30:44;17.30;99.90
7648;DHT22;3866;48.020;11.720;2023-05-07T06:33:12;17.30;99.90
7648;DHT22;3866;48.020;11.720;2023-05-07T06:35:39;17.80;99.90
7648;DHT22;3866;48.020;11.720;2023-05-07T06:38:06;17.70;99.90
7648;DHT22;3866;48.020;11.720;2023-05-07T06:40:33;17.50;99.90
7648;DHT22;3866;48.020;11.720;2023-05-07T06:43:00;18.10;99.90
7648;DHT22;3866;48.020;11.720;2023-05-07T06:45:26;18.40;99.90
7648;DHT22;3866;48.020;11.720;2023-05-07T06:47:53;18.60;99.90
7648;DHT22;3866;48.020;11.720;2023-05-07T06:50:21;19.60;99.90
7648;DHT22;3866;48.020;11.720;2023-05-07T06:52:48;20.30;99.90
7648;DHT22;3866;48.020;11.720;2023-05-07T06:55:15;21.30;99.90
7648;DHT22;3866;48.020;11.720;2023-05-07T06:57:42;22.50;99.90
7648;DHT22;3866;48.020;11.720;2023-05-07T07:00:10;23.20;99.90
7648;DHT22;3866;48.020;11.720;2023-05-07T07:02:37;23.60;99.90
7648;DHT22;3866;48.020;11.720;2023-05-07T07:05:04;24.50;99.90
7648;DHT22;3866;48.020;11.720;2023-05-07T07:07:33;24.30;99.90
7648;DHT22;3866;48.020;11.720;2023-05-07T07:09:59;24.40;99.90
7648;DHT22;3866;48.020;11.720;2023-05-07T07:12:26;24.50;99.90
7648;DHT22;3866;48.020;11.720;2023-05-07T07:14:54;24.10;99.90
7648;DHT22;3866;48.020;11.720;2023-05-07T07:17:21;24.40;99.90
7648;DHT22;3866;48.020;11.720;2023-05-07T07:19:48;24.90;99.90
7648;DHT22;3866;48.020;11.720;2023-05-07T07:22:14;25.60;99.90
7648;DHT22;3866;48.020;11.720;2023-05-07T07:24:43;25.80;99.90
7648;DHT22;3866;48.020;11.720;2023-05-07T07:27:10;26.20;99.90
7648;DHT22;3866;48.020;11.720;2023-05-07T07:29:36;26.30;99.90
7648;DHT22;3866;48.020;11.720;2023-05-07T07:32:04;25.30;99.90
7648;DHT22;3866;48.020;11.720;2023-05-07T07:34:32;24.70;99.90
7648;DHT22;3866;48.020;11.720;2023-05-07T07:36:58;25.10;99.90
7648;DHT22;3866;48.020;11.720;2023-05-07T07:39:30;25.80;99.90
7648;DHT22;3866;48.020;11.720;2023-05-07T07:41:59;26.60;99.90
7648;DHT22;3866;48.020;11.720;2023-05-07T07:44:26;26.60;99.90
7648;DHT22;3866;48.020;11.720;2023-05-07T07:46:52;26.00;99.90
7648;DHT22;3866;48.020;11.720;2023-05-07T07:49:19;25.30;99.90
7648;DHT22;3866;48.020;11.720;2023-05-07T07:51:46;25.70;99.90
7648;DHT22;3866;48.020;11.720;2023-05-07T07:54:13;25.60;99.90
7648;DHT22;3866;48.020;11.720;2023-05-07T07:56:40;27.00;99.90
7648;DHT22;3866;48.020;11.720;2023-05-07T07:59:08;26.30;99.90
7648;DHT22;3866;48.020;11.720;2023-05-07T08:01:35;25.60;99.90
7648;DHT22;3866;48.020;11.720;2023-05-07T08:04:01;25.90;99.90
7648;DHT22;3866;48.020;11.720;2023-05-07T08:06:30;25.90;99.90
7648;DHT22;3866;48.020;11.720;2023-05-07T08:08:57;27.10;99.90
7648;DHT22;3866;48.020;11.720;2023-05-07T08:11:24;28.00;99.90
7648;DHT22;3866;48.020;11.720;2023-05-07T08:13:51;28.30;99.90
7648;DHT22;3866;48.020;11.720;2023-05-07T08:16:19;27.20;99.90
7648;DHT22;3866;48.020;11.720;2023-05-07T08:18:46;28.40;99.90
7648;DHT22;3866;48.020;11.720;2023-05-07T08:21:13;28.80;99.90
7648;DHT22;3866;48.020;11.720;2023-05-07T08:23:40;28.90;99.90
7648;DHT22;3866;48.020;11.720;2023-05-07T08:26:07;28.50;99.90
7648;DHT22;3866;48.020;11.720;2023-05-07T08:28:35;28.00;99.90
7648;DHT22;3866;48.020;11.720;2023-05-07T08:31:02;26.10;99.90
7648;DHT22;3866;48.020;11.720;2023-05-07T08:33:30;24.50;99.90
7648;DHT22;3866;48.020;11.720;2023-05-07T08:35:57;24.00;99.90
7648;DHT22;3866;48.020;11.720;2023-05-07T08:38:24;24.20;99.90
7648;DHT22;3866;48.020;11.720;2023-05-07T08:40:51;24.60;99.90
7648;DHT22;3866;48.020;11.720;2023-05-07T08:43:18;24.90;99.90
7648;DHT22;3866;48.020;11.720;2023-05-07T08:45:47;23.90;99.90
7648;DHT22;3866;48.020;11.720;2023-05-07T08:48:16;24.00;99.90
7648;DHT22;3866;48.020;11.720;2023-05-07T08:50:44;23.10;99.90
7648;DHT22;3866;48.020;11.720;2023-05-07T08:53:12;24.00;99.90
7648;DHT22;3866;48.020;11.720;2023-05-07T08:55:39;23.10;99.90
7648;DHT22;3866;48.020;11.720;2023-05-07T08:58:06;23.70;99.90
7648;DHT22;3866;48.020;11.720;2023-05-07T09:00:33;24.00;99.90
7648;DHT22;3866;48.020;11.720;2023-05-07T09:03:00;23.40;99.90
7648;DHT22;3866;48.020;11.720;2023-05-07T09:05:28;23.50;99.90
7648;DHT22;3866;48.020;11.720;2023-05-07T09:07:59;23.20;99.90
7648;DHT22;3866;48.020;11.720;2023-05-07T09:10:26;22.70;99.90
7648;DHT22;3866;48.020;11.720;2023-05-07T09:12:53;22.00;99.90
7648;DHT22;3866;48.020;11.720;2023-05-07T09:15:20;22.20;99.90
7648;DHT22;3866;48.020;11.720;2023-05-07T09:17:47;22.50;99.90
7648;DHT22;3866;48.020;11.720;2023-05-07T09:20:14;22.50;99.90
7648;DHT22;3866;48.020;11.720;2023-05-07T09:22:41;22.20;99.90
7648;DHT22;3866;48.020;11.720;2023-05-07T09:25:09;22.30;99.90
7648;DHT22;3866;48.020;11.720;2023-05-07T09:27:41;21.90;99.90
7648;DHT22;3866;48.020;11.720;2023-05-07T09:30:08;22.30;99.90
7648;DHT22;3866;48.020;11.720;2023-05-07T09:32:36;22.50;99.90
7648;DHT22;3866;48.020;11.720;2023-05-07T09:35:05;22.90;99.90
7648;DHT22;3866;48.020;11.720;2023-05-07T09:37:32;22.60;99.90
7648;DHT22;3866;48.020;11.720;2023-05-07T09:39:59;22.30;99.90
7648;DHT22;3866;48.020;11.720;2023-05-07T09:42:27;22.50;99.90
7648;DHT22;3866;48.020;11.720;2023-05-07T09:44:54;22.50;99.90
7648;DHT22;3866;48.020;11.720;2023-05-07T09:47:24;22.80;99.90
7648;DHT22;3866;48.020;11.720;2023-05-07T09:49:55;23.00;99.90
7648;DHT22;3866;48.020;11.720;2023-05-07T09:52:23;23.10;99.90
7648;DHT22;3866;48.020;11.720;2023-05-07T09:54:50;22.80;99.90
7648;DHT22;3866;48.020;11.720;2023-05-07T09:57:19;23.10;99.90
7648;DHT22;3866;48.020;11.720;2023-05-07T09:59:49;23.30;99.90
7648;DHT22;3866;48.020;11.720;2023-05-07T10:02:18;22.90;99.90
7648;DHT22;3866;48.020;11.720;2023-05-07T10:04:46;22.60;99.90
7648;DHT22;3866;48.020;11.720;2023-05-07T10:07:14;22.40;99.90
7648;DHT22;3866;48.020;11.720;2023-05-07T10:09:41;22.60;99.90
7648;DHT22;3866;48.020;11.720;2023-05-07T10:12:10;22.10;99.90
7648;DHT22;3866;48.020;11.720;2023-05-07T10:14:37;21.90;99.90
7648;DHT22;3866;48.020;11.720;2023-05-07T10:17:06;22.30;99.90
7648;DHT22;3866;48.020;11.720;2023-05-07T10:19:34;22.30;99.90
7648;DHT22;3866;48.020;11.720;2023-05-07T10:22:05;22.00;99.90
7648;DHT22;3866;48.020;11.720;2023-05-07T10:24:33;22.10;99.90
7648;DHT22;3866;48.020;11.720;2023-05-07T10:27:02;22.40;99.90
7648;DHT22;3866;48.020;11.720;2023-05-07T10:29:36;22.40;99.90
7648;DHT22;3866;48.020;11.720;2023-05-07T10:32:30;21.90;99.90
7648;DHT22;3866;48.020;11.720;2023-05-07T10:35:02;22.10;99.90
7648;DHT22;3866;48.020;11.720;2023-05-07T10:37:29;22.00;99.90
7648;DHT22;3866;48.020;11.720;2023-05-07T10:39:56;22.00;99.90
7648;DHT22;3866;48.020;11.720;2023-05-07T10:42:24;22.30;99.90
7648;DHT22;3866;48.020;11.720;2023-05-07T10:44:51;22.30;99.90
7648;DHT22;3866;48.020;11.720;2023-05-07T10:47:18;22.90;99.90
7648;DHT22;3866;48.020;11.720;2023-05-07T10:53:22;22.50;99.90
7648;DHT22;3866;48.020;11.720;2023-05-07T10:56:25;22.50;99.90
7648;DHT22;3866;48.020;11.720;2023-05-07T10:58:53;22.90;99.90
7648;DHT22;3866;48.020;11.720;2023-05-07T11:01:50;23.10;99.90
7648;DHT22;3866;48.020;11.720;2023-05-07T11:04:18;22.70;99.90
7648;DHT22;3866;48.020;11.720;2023-05-07T11:07:21;22.80;99.90
7648;DHT22;3866;48.020;11.720;2023-05-07T11:10:05;22.30;99.90
7648;DHT22;3866;48.020;11.720;2023-05-07T11:12:54;22.10;99.90
7648;DHT22;3866;48.020;11.720;2023-05-07T11:15:42;22.30;99.90
7648;DHT22;3866;48.020;11.720;2023-05-07T11:18:10;22.10;99.90
7648;DHT22;3866;48.020;11.720;2023-05-07T11:21:01;22.70;99.90
7648;DHT22;3866;48.020;11.720;2023-05-07T11:23:56;22.70;99.90
7648;DHT22;3866;48.020;11.720;2023-05-07T11:26:29;22.30;99.90
7648;DHT22;3866;48.020;11.720;2023-05-07T11:28:57;23.10;99.90
7648;DHT22;3866;48.020;11.720;2023-05-07T11:31:27;23.70;99.90
7648;DHT22;3866;48.020;11.720;2023-05-07T11:33:55;24.00;99.90
7648;DHT22;3866;48.020;11.720;2023-05-07T11:36:23;24.20;99.90
7648;DHT22;3866;48.020;11.720;2023-05-07T11:38:50;23.40;99.90
7648;DHT22;3866;48.020;11.720;2023-05-07T11:41:17;23.20;99.90
7648;DHT22;3866;48.020;11.720;2023-05-07T11:43:58;23.70;99.90
7648;DHT22;3866;48.020;11.720;2023-05-07T11:46:26;23.70;99.90
7648;DHT22;3866;48.020;11.720;2023-05-07T11:48:53;23.30;99.90
7648;DHT22;3866;48.020;11.720;2023-05-07T11:51:21;23.60;99.90
7648;DHT22;3866;48.020;11.720;2023-05-07T11:53:48;23.70;99.90
7648;DHT22;3866;48.020;11.720;2023-05-07T11:56:17;24.00;99.90
7648;DHT22;3866;48.020;11.720;2023-05-07T11:58:46;24.20;99.90
7648;DHT22;3866;48.020;11.720;2023-05-07T12:01:14;23.70;99.90
7648;DHT22;3866;48.020;11.720;2023-05-07T12:03:43;24.20;99.90
7648;DHT22;3866;48.020;11.720;2023-05-07T12:06:12;24.40;99.90
7648;DHT22;3866;48.020;11.720;2023-05-07T12:08:40;24.10;99.90
7648;DHT22;3866;48.020;11.720;2023-05-07T12:11:08;24.70;99.90
7648;DHT22;3866;48.020;11.720;2023-05-07T12:13:36;23.90;99.90
7648;DHT22;3866;48.020;11.720;2023-05-07T12:16:06;23.50;99.90
7648;DHT22;3866;48.020;11.720;2023-05-07T12:18:36;24.00;99.90
7648;DHT22;3866;48.020;11.720;2023-05-07T12:21:06;24.80;99.90
7648;DHT22;3866;48.020;11.720;2023-05-07T12:23:36;25.00;99.90
7648;DHT22;3866;48.020;11.720;2023-05-07T12:26:03;24.50;99.90
7648;DHT22;3866;48.020;11.720;2023-05-07T12:28:35;24.90;99.90
7648;DHT22;3866;48.020;11.720;2023-05-07T12:31:04;24.50;99.90
7648;DHT22;3866;48.020;11.720;2023-05-07T12:33:32;24.60;99.90
7648;DHT22;3866;48.020;11.720;2023-05-07T12:36:04;24.40;99.90
7648;DHT22;3866;48.020;11.720;2023-05-07T12:38:35;25.00;99.90
7648;DHT22;3866;48.020;11.720;2023-05-07T12:41:03;24.90;99.90
7648;DHT22;3866;48.020;11.720;2023-05-07T12:43:30;24.50;99.90
7648;DHT22;3866;48.020;11.720;2023-05-07T12:46:00;23.90;99.90
7648;DHT22;3866;48.020;11.720;2023-05-07T12:48:28;24.30;99.90
7648;DHT22;3866;48.020;11.720;2023-05-07T12:50:55;24.70;99.90
7648;DHT22;3866;48.020;11.720;2023-05-07T12:53:25;24.60;99.90
7648;DHT22;3866;48.020;11.720;2023-05-07T12:55:53;24.00;99.90
7648;DHT22;3866;48.020;11.720;2023-05-07T12:58:25;23.50;99.90
7648;DHT22;3866;48.020;11.720;2023-05-07T13:00:53;23.10;99.90
7648;DHT22;3866;48.020;11.720;2023-05-07T13:03:26;23.00;99.90
7648;DHT22;3866;48.020;11.720;2023-05-07T13:05:55;23.30;99.90
7648;DHT22;3866;48.020;11.720;2023-05-07T13:08:27;24.20;99.90
7648;DHT22;3866;48.020;11.720;2023-05-07T13:10:55;24.20;99.90
7648;DHT22;3866;48.020;11.720;2023-05-07T13:13:22;23.80;99.90
7648;DHT22;3866;48.020;11.720;2023-05-07T13:15:49;23.60;99.90
7648;DHT22;3866;48.020;11.720;2023-05-07T13:18:16;23.50;99.90
7648;DHT22;3866;48.020;11.720;2023-05-07T13:20:43;23.20;99.90
7648;DHT22;3866;48.020;11.720;2023-05-07T13:23:10;22.80;99.90
7648;DHT22;3866;48.020;11.720;2023-05-07T13:25:38;22.90;99.90
7648;DHT22;3866;48.020;11.720;2023-05-07T13:28:05;22.80;99.90
7648;DHT22;3866;48.020;11.720;2023-05-07T13:30:32;22.90;99.90
7648;DHT22;3866;48.020;11.720;2023-05-07T13:32:59;23.10;99.90
7648;DHT22;3866;48.020;11.720;2023-05-07T13:35:26;22.80;99.90
7648;DHT22;3866;48.020;11.720;2023-05-07T13:37:53;22.60;99.90
7648;DHT22;3866;48.020;11.720;2023-05-07T13:40:20;22.70;99.90
7648;DHT22;3866;48.020;11.720;2023-05-07T13:42:48;22.90;99.90
7648;DHT22;3866;48.020;11.720;2023-05-07T13:45:16;22.60;99.90
7648;DHT22;3866;48.020;11.720;2023-05-07T13:47:43;22.40;99.90
7648;DHT22;3866;48.020;11.720;2023-05-07T13:50:10;22.70;99.90
7648;DHT22;3866;48.020;11.720;2023-05-07T13:52:41;22.50;99.90
7648;DHT22;3866;48.020;11.720;2023-05-07T13:55:09;22.30;99.90
7648;DHT22;3866;48.020;11.720;2023-05-07T13:57:36;22.00;99.90
7648;DHT22;3866;48.020;11.720;2023-05-07T14:00:06;22.10;99.90
7648;DHT22;3866;48.020;11.720;2023-05-07T14:02:33;21.90;99.90
7648;DHT22;3866;48.020;11.720;2023-05-07T14:05:00;21.90;99.90
7648;DHT22;3866;48.020;11.720;2023-05-07T14:07:27;21.90;99.90
7648;DHT22;3866;48.020;11.720;2023-05-07T14:09:54;21.90;99.90
7648;DHT22;3866;48.020;11.720;2023-05-07T14:12:21;22.00;99.90
7648;DHT22;3866;48.020;11.720;2023-05-07T14:14:48;22.00;99.90
7648;DHT22;3866;48.020;11.720;2023-05-07T14:17:17;21.90;99.90
7648;DHT22;3866;48.020;11.720;2023-05-07T14:19:44;21.90;99.90
7648;DHT22;3866;48.020;11.720;2023-05-07T14:22:10;21.90;99.90
7648;DHT22;3866;48.020;11.720;2023-05-07T14:24:38;21.70;99.90
7648;DHT22;3866;48.020;11.720;2023-05-07T14:27:05;21.60;99.90
7648;DHT22;3866;48.020;11.720;2023-05-07T14:29:32;21.10;99.90
7648;DHT22;3866;48.020;11.720;2023-05-07T14:32:00;21.10;99.90
7648;DHT22;3866;48.020;11.720;2023-05-07T14:34:29;21.40;99.90
7648;DHT22;3866;48.020;11.720;2023-05-07T14:36:56;21.20;99.90
7648;DHT22;3866;48.020;11.720;2023-05-07T14:39:22;21.00;99.90
7648;DHT22;3866;48.020;11.720;2023-05-07T14:41:49;21.10;99.90
7648;DHT22;3866;48.020;11.720;2023-05-07T14:44:16;20.80;99.90
7648;DHT22;3866;48.020;11.720;2023-05-07T14:46:43;20.60;99.90
7648;DHT22;3866;48.020;11.720;2023-05-07T14:49:10;20.60;99.90
7648;DHT22;3866;48.020;11.720;2023-05-07T14:51:44;20.80;99.90
7648;DHT22;3866;48.020;11.720;2023-05-07T14:54:11;21.20;99.90
7648;DHT22;3866;48.020;11.720;2023-05-07T14:56:39;21.40;99.90
7648;DHT22;3866;48.020;11.720;2023-05-07T14:59:06;21.10;99.90
7648;DHT22;3866;48.020;11.720;2023-05-07T15:01:34;20.90;99.90
7648;DHT22;3866;48.020;11.720;2023-05-07T15:04:02;20.80;99.90
7648;DHT22;3866;48.020;11.720;2023-05-07T15:06:29;20.90;99.90
7648;DHT22;3866;48.020;11.720;2023-05-07T15:08:58;21.10;99.90
7648;DHT22;3866;48.020;11.720;2023-05-07T15:11:25;21.00;99.90
7648;DHT22;3866;48.020;11.720;2023-05-07T15:13:52;21.00;99.90
7648;DHT22;3866;48.020;11.720;2023-05-07T15:16:19;21.00;99.90
7648;DHT22;3866;48.020;11.720;2023-05-07T15:18:46;21.10;99.90
7648;DHT22;3866;48.020;11.720;2023-05-07T15:21:13;20.80;99.90
7648;DHT22;3866;48.020;11.720;2023-05-07T15:23:40;20.80;99.90
7648;DHT22;3866;48.020;11.720;2023-05-07T15:26:09;20.90;99.90
7648;DHT22;3866;48.020;11.720;2023-05-07T15:28:36;21.00;99.90
7648;DHT22;3866;48.020;11.720;2023-05-07T15:31:03;21.10;99.90
7648;DHT22;3866;48.020;11.720;2023-05-07T15:33:30;21.20;99.90
7648;DHT22;3866;48.020;11.720;2023-05-07T15:35:57;21.30;99.90
7648;DHT22;3866;48.020;11.720;2023-05-07T15:38:25;21.20;99.90
7648;DHT22;3866;48.020;11.720;2023-05-07T15:40:52;21.40;99.90
7648;DHT22;3866;48.020;11.720;2023-05-07T15:43:21;21.40;99.90
7648;DHT22;3866;48.020;11.720;2023-05-07T15:45:48;21.50;99.90
7648;DHT22;3866;48.020;11.720;2023-05-07T15:48:15;21.40;99.90
7648;DHT22;3866;48.020;11.720;2023-05-07T15:50:42;21.40;99.90
7648;DHT22;3866;48.020;11.720;2023-05-07T15:53:09;21.30;99.90
7648;DHT22;3866;48.020;11.720;2023-05-07T15:55:39;21.20;99.90